createdAt,value
2019-02-17T00:00:10.738Z,27.50
2019-02-17T00:02:41.076Z,28.60
2019-02-17T00:05:10.154Z,29.40
2019-02-17T00:07:39.195Z,31.13
2019-02-17T00:10:08.297Z,27.97
2019-02-17T00:12:37.563Z,25.53
2019-02-17T00:15:07.070Z,27.23
2019-02-17T00:17:36.117Z,27.77
2019-02-17T00:20:06.518Z,29.53
2019-02-17T00:22:36.302Z,23.30
2019-02-17T00:25:05.641Z,26.87
2019-02-17T00:27:34.753Z,24.27
2019-02-17T00:30:03.842Z,26.63
2019-02-17T00:32:32.906Z,22.97
2019-02-17T00:35:02.029Z,23.50
2019-02-17T00:37:31.038Z,24.90
2019-02-17T00:40:00.269Z,22.93
2019-02-17T00:42:29.455Z,27.17
2019-02-17T00:44:58.471Z,27.07
2019-02-17T00:47:27.542Z,25.50
2019-02-17T00:49:56.667Z,26.37
2019-02-17T00:52:25.808Z,30.97
2019-02-17T00:54:54.914Z,23.63
2019-02-17T00:57:24.558Z,25.17
2019-02-17T00:59:53.742Z,26.57
2019-02-17T01:02:22.754Z,23.20
2019-02-17T01:04:51.864Z,24.40
2019-02-17T01:07:20.946Z,19.10
2019-02-17T01:09:50.080Z,24.37
2019-02-17T01:12:19.194Z,19.83
2019-02-17T01:14:48.340Z,20.63
2019-02-17T01:17:19.195Z,21.20
2019-02-17T01:19:48.227Z,23.67
2019-02-17T01:22:17.373Z,23.77
2019-02-17T01:24:46.521Z,23.60
2019-02-17T01:27:15.560Z,23.87
2019-02-17T01:29:44.674Z,21.07
2019-02-17T01:32:13.760Z,24.07
2019-02-17T01:34:42.865Z,18.30
2019-02-17T01:37:11.975Z,19.57
2019-02-17T01:39:42.496Z,20.63
2019-02-17T01:42:11.603Z,20.17
2019-02-17T01:44:40.701Z,21.07
2019-02-17T01:47:09.770Z,22.10
2019-02-17T01:49:38.975Z,21.73
2019-02-17T01:52:08.273Z,24.53
2019-02-17T01:54:37.374Z,21.07
2019-02-17T01:57:06.614Z,21.83
2019-02-17T01:59:35.721Z,19.93
2019-02-17T02:02:05.682Z,19.90
2019-02-17T02:04:42.583Z,15.60
2019-02-17T02:07:11.716Z,18.57
2019-02-17T02:09:40.751Z,16.43
2019-02-17T02:12:09.869Z,18.87
2019-02-17T02:14:39.065Z,16.07
2019-02-17T02:17:08.134Z,17.17
2019-02-17T02:19:37.708Z,17.10
2019-02-17T02:22:06.805Z,15.67
2019-02-17T02:24:35.881Z,14.57
2019-02-17T02:27:05.002Z,13.80
2019-02-17T02:29:40.710Z,12.67
2019-02-17T02:32:04.853Z,15.47
2019-02-17T02:34:33.853Z,14.57
2019-02-17T02:37:03.060Z,16.30
2019-02-17T02:39:32.047Z,14.47
2019-02-17T02:42:01.086Z,17.30
2019-02-17T02:44:30.133Z,14.17
2019-02-17T02:46:59.196Z,13.00
2019-02-17T02:49:28.245Z,15.40
2019-02-17T02:51:57.427Z,15.30
2019-02-17T02:54:26.463Z,15.33
2019-02-17T02:56:55.526Z,18.97
2019-02-17T02:59:24.701Z,13.97
2019-02-17T03:01:54.005Z,14.00
2019-02-17T03:04:23.154Z,14.83
2019-02-17T03:06:57.064Z,14.83
2019-02-17T03:09:26.141Z,14.03
2019-02-17T03:11:55.551Z,17.13
2019-02-17T03:14:24.601Z,13.73
2019-02-17T03:16:53.749Z,12.40
2019-02-17T03:19:22.822Z,15.13
2019-02-17T03:21:51.794Z,13.40
2019-02-17T03:24:20.807Z,16.77
2019-02-17T03:26:49.840Z,14.03
2019-02-17T03:29:18.833Z,16.97
2019-02-17T03:31:48.069Z,16.07
2019-02-17T03:34:17.089Z,12.37
2019-02-17T03:36:46.122Z,14.47
2019-02-17T03:39:15.218Z,17.47
2019-02-17T03:41:44.325Z,14.10
2019-02-17T03:44:13.301Z,16.90
2019-02-17T03:46:42.377Z,14.90
2019-02-17T03:49:11.482Z,14.20
2019-02-17T03:51:41.837Z,14.97
2019-02-17T03:54:10.845Z,12.40
2019-02-17T03:56:39.921Z,14.97
2019-02-17T03:59:09.101Z,12.67
2019-02-17T04:01:38.240Z,15.07
2019-02-17T04:04:07.317Z,18.63
2019-02-17T04:06:36.288Z,14.93
2019-02-17T04:09:07.708Z,14.07
2019-02-17T04:11:37.021Z,15.47
2019-02-17T04:14:06.108Z,15.97
2019-02-17T04:16:35.101Z,15.67
2019-02-17T04:19:04.298Z,13.73
2019-02-17T04:21:33.552Z,17.87
2019-02-17T04:24:02.671Z,13.80
2019-02-17T04:26:31.698Z,15.30
2019-02-17T04:29:00.817Z,13.27
2019-02-17T04:31:29.909Z,13.30
2019-02-17T04:33:58.977Z,12.03
2019-02-17T04:36:28.058Z,14.60
2019-02-17T04:38:57.397Z,14.40
2019-02-17T04:41:26.496Z,14.17
2019-02-17T04:43:55.567Z,14.77
2019-02-17T04:46:24.687Z,15.53
2019-02-17T04:48:53.741Z,12.53
2019-02-17T04:51:22.832Z,13.20
2019-02-17T04:53:51.865Z,13.80
2019-02-17T04:56:20.832Z,12.87
2019-02-17T04:58:49.862Z,13.63
2019-02-17T05:01:18.909Z,12.93
2019-02-17T05:03:47.929Z,13.17
2019-02-17T05:06:16.925Z,12.67
2019-02-17T05:08:45.988Z,12.30
2019-02-17T05:11:14.987Z,12.20
2019-02-17T05:13:43.979Z,13.07
2019-02-17T05:16:13.114Z,13.27
2019-02-17T05:18:42.176Z,13.23
2019-02-17T05:21:11.181Z,13.37
2019-02-17T05:23:40.153Z,13.53
2019-02-17T05:26:11.602Z,15.20
2019-02-17T05:28:40.727Z,14.47
2019-02-17T05:31:09.766Z,12.77
2019-02-17T05:33:38.808Z,15.00
2019-02-17T05:36:07.880Z,13.87
2019-02-17T05:38:36.981Z,14.20
2019-02-17T05:41:07.220Z,16.17
2019-02-17T05:43:36.319Z,15.30
2019-02-17T05:46:05.462Z,13.03
2019-02-17T05:48:34.433Z,13.10
2019-02-17T05:51:03.453Z,17.57
2019-02-17T05:53:32.467Z,14.07
2019-02-17T05:56:01.565Z,15.77
2019-02-17T05:58:30.682Z,15.10
2019-02-17T06:01:03.911Z,16.43
2019-02-17T06:03:30.589Z,16.33
2019-02-17T06:05:59.626Z,17.47
2019-02-17T06:08:28.656Z,18.40
2019-02-17T06:10:57.675Z,15.47
2019-02-17T06:13:26.673Z,17.67
2019-02-17T06:15:55.705Z,15.10
2019-02-17T06:18:24.733Z,15.73
2019-02-17T06:20:53.722Z,11.80
2019-02-17T06:23:22.791Z,16.43
2019-02-17T06:25:51.802Z,15.77
2019-02-17T06:28:20.822Z,15.47
2019-02-17T06:30:49.958Z,14.73
2019-02-17T06:33:18.964Z,12.50
2019-02-17T06:35:48.010Z,15.00
2019-02-17T06:38:16.992Z,12.30
2019-02-17T06:40:45.974Z,12.37
2019-02-17T06:43:14.975Z,14.20
2019-02-17T06:45:43.995Z,12.90
2019-02-17T06:48:13.027Z,13.60
2019-02-17T06:50:42.023Z,15.90
2019-02-17T06:53:11.644Z,15.23
2019-02-17T06:55:45.440Z,14.70
2019-02-17T06:58:14.419Z,12.20
2019-02-17T07:00:48.973Z,14.03
2019-02-17T07:03:18.088Z,14.57
2019-02-17T07:05:56.816Z,12.03
2019-02-17T07:08:25.893Z,15.27
2019-02-17T07:10:54.958Z,15.00
2019-02-17T07:13:23.963Z,15.67
2019-02-17T07:15:52.958Z,15.30
2019-02-17T07:18:23.558Z,14.10
2019-02-17T07:20:52.554Z,15.67
2019-02-17T07:23:21.687Z,14.43
2019-02-17T07:25:50.686Z,14.53
2019-02-17T07:28:19.821Z,13.47
2019-02-17T07:30:48.998Z,15.93
2019-02-17T07:33:18.073Z,16.17
2019-02-17T07:35:47.053Z,17.23
2019-02-17T07:38:16.045Z,15.63
2019-02-17T07:40:45.192Z,15.93
2019-02-17T07:43:14.273Z,16.77
2019-02-17T07:45:43.333Z,16.63
2019-02-17T07:48:12.313Z,17.87
2019-02-17T07:50:41.357Z,14.23
2019-02-17T07:53:10.393Z,15.70
2019-02-17T07:55:39.568Z,15.73
2019-02-17T07:58:08.526Z,16.07
2019-02-17T08:00:37.556Z,16.30
2019-02-17T08:03:06.562Z,15.67
2019-02-17T08:05:35.665Z,13.87
2019-02-17T08:08:04.841Z,16.97
2019-02-17T08:10:33.865Z,16.13
2019-02-17T08:13:02.908Z,16.03
2019-02-17T08:15:31.901Z,20.67
2019-02-17T08:18:00.976Z,16.70
2019-02-17T08:20:29.969Z,16.73
2019-02-17T08:22:59.120Z,20.67
2019-02-17T08:25:28.116Z,15.73
2019-02-17T08:27:57.085Z,17.43
2019-02-17T08:30:26.092Z,16.17
2019-02-17T08:32:55.114Z,16.73
2019-02-17T08:35:24.117Z,15.23
2019-02-17T08:37:53.231Z,17.70
2019-02-17T08:40:22.212Z,16.67
2019-02-17T08:42:51.238Z,15.57
2019-02-17T08:45:20.266Z,19.00
2019-02-17T08:47:49.302Z,18.30
2019-02-17T08:50:19.950Z,17.67
2019-02-17T08:52:49.203Z,17.90
2019-02-17T08:55:18.445Z,17.50
2019-02-17T08:57:47.614Z,17.70
2019-02-17T09:00:17.085Z,17.27
2019-02-17T09:02:46.253Z,16.73
2019-02-17T09:05:15.409Z,16.70
2019-02-17T09:07:44.418Z,19.03
2019-02-17T09:10:13.741Z,15.37
2019-02-17T09:12:42.765Z,16.57
2019-02-17T09:15:12.542Z,16.27
2019-02-17T09:17:41.630Z,15.37
2019-02-17T09:20:11.128Z,14.90
2019-02-17T09:22:41.730Z,17.13
2019-02-17T09:25:11.456Z,18.50
2019-02-17T09:27:40.850Z,19.93
2019-02-17T09:30:14.579Z,16.77
2019-02-17T09:32:44.189Z,22.43
2019-02-17T09:35:14.854Z,17.33
2019-02-17T09:37:45.907Z,20.57
2019-02-17T09:40:15.895Z,17.73
2019-02-17T09:42:47.067Z,17.73
2019-02-17T09:45:18.021Z,16.83
2019-02-17T09:47:50.790Z,19.10
2019-02-17T09:50:21.696Z,18.80
2019-02-17T09:52:51.478Z,18.70
2019-02-17T09:55:22.987Z,17.87
2019-02-17T09:57:54.520Z,18.70
2019-02-17T10:00:25.357Z,19.07
2019-02-17T10:02:54.374Z,18.20
2019-02-17T10:05:23.479Z,17.30
2019-02-17T10:07:52.500Z,18.27
2019-02-17T10:10:24.649Z,18.00
2019-02-17T10:12:53.700Z,17.07
2019-02-17T10:15:22.731Z,18.80
2019-02-17T10:17:53.845Z,19.30
2019-02-17T10:20:24.477Z,17.13
2019-02-17T10:22:53.493Z,18.83
2019-02-17T10:25:22.716Z,17.50
2019-02-17T10:27:51.820Z,18.00
2019-02-17T10:30:20.922Z,18.10
2019-02-17T10:32:49.979Z,19.20
2019-02-17T10:35:19.841Z,20.50
2019-02-17T10:37:48.989Z,17.90
2019-02-17T10:40:18.253Z,18.33
2019-02-17T10:42:48.469Z,19.07
2019-02-17T10:45:17.584Z,19.47
2019-02-17T10:47:46.568Z,18.27
2019-02-17T10:50:15.713Z,19.73
2019-02-17T10:52:44.757Z,20.47
2019-02-17T10:55:14.058Z,20.40
2019-02-17T10:57:43.186Z,19.17
2019-02-17T11:00:14.286Z,21.87
2019-02-17T11:02:47.020Z,24.80
2019-02-17T11:05:14.347Z,19.97
2019-02-17T11:07:43.362Z,24.40
2019-02-17T11:10:13.209Z,21.50
2019-02-17T11:12:42.305Z,23.80
2019-02-17T11:15:13.569Z,20.80
2019-02-17T11:17:42.714Z,22.63
2019-02-17T11:20:12.056Z,19.73
2019-02-17T11:22:41.121Z,21.87
2019-02-17T11:25:10.291Z,20.20
2019-02-17T11:27:39.398Z,20.67
2019-02-17T11:30:10.652Z,21.50
2019-02-17T11:32:39.733Z,20.70
2019-02-17T11:35:09.030Z,20.87
2019-02-17T11:37:38.202Z,18.87
2019-02-17T11:40:09.337Z,19.40
2019-02-17T11:42:38.714Z,20.87
2019-02-17T11:45:10.172Z,19.40
2019-02-17T11:47:39.328Z,22.37
2019-02-17T11:50:09.335Z,21.23
2019-02-17T11:52:38.517Z,23.40
2019-02-17T11:55:10.180Z,23.27
2019-02-17T11:57:39.425Z,23.77
2019-02-17T12:00:14.731Z,21.53
2019-02-17T12:02:43.845Z,21.13
2019-02-17T12:05:13.364Z,19.33
2019-02-17T12:07:42.426Z,23.67
2019-02-17T12:10:11.746Z,23.57
2019-02-17T12:12:43.197Z,22.43
2019-02-17T12:15:14.355Z,27.20
2019-02-17T12:17:43.491Z,21.37
2019-02-17T12:20:34.202Z,23.30
2019-02-17T12:23:08.091Z,22.97
2019-02-17T12:25:56.337Z,23.83
2019-02-17T12:28:33.447Z,23.50
2019-02-17T12:31:02.634Z,23.07
2019-02-17T12:33:31.727Z,25.97
2019-02-17T12:36:00.700Z,25.57
2019-02-17T12:38:31.820Z,21.70
2019-02-17T12:41:00.901Z,20.97
2019-02-17T12:43:32.597Z,23.77
2019-02-17T12:46:01.653Z,26.00
2019-02-17T12:48:30.716Z,22.87
2019-02-17T12:51:00.269Z,26.37
2019-02-17T12:53:29.455Z,23.60
2019-02-17T12:55:58.715Z,26.13
2019-02-17T12:58:30.202Z,24.53
2019-02-17T13:00:58.552Z,26.83
2019-02-17T13:03:28.726Z,23.80
2019-02-17T13:05:58.017Z,23.97
2019-02-17T13:08:27.119Z,22.17
2019-02-17T13:10:56.218Z,22.73
2019-02-17T13:13:25.320Z,44.97
2019-02-17T13:15:54.300Z,27.07
2019-02-17T13:18:24.857Z,25.63
2019-02-17T13:20:54.206Z,32.07
2019-02-17T13:23:23.176Z,30.33
2019-02-17T13:25:52.262Z,26.17
2019-02-17T13:28:21.312Z,29.77
2019-02-17T13:30:53.624Z,24.93
2019-02-17T13:33:21.851Z,24.00
2019-02-17T13:35:50.852Z,26.23
2019-02-17T13:38:19.417Z,27.13
2019-02-17T13:40:47.950Z,25.97
2019-02-17T13:43:16.531Z,26.90
2019-02-17T13:45:45.543Z,27.87
2019-02-17T13:48:14.020Z,26.20
2019-02-17T13:50:42.824Z,22.17
2019-02-17T13:53:12.285Z,28.13
2019-02-17T13:55:41.305Z,28.83
2019-02-17T13:58:10.466Z,29.63
2019-02-17T14:00:39.534Z,26.90
2019-02-17T14:03:08.533Z,32.30
2019-02-17T14:05:37.552Z,39.37
2019-02-17T14:08:06.626Z,27.53
2019-02-17T14:10:35.678Z,28.20
2019-02-17T14:13:04.931Z,26.80
2019-02-17T14:15:34.218Z,27.10
2019-02-17T14:18:03.250Z,29.20
2019-02-17T14:20:32.372Z,27.67
2019-02-17T14:23:01.394Z,26.93
2019-02-17T14:25:30.417Z,28.00
2019-02-17T14:27:59.521Z,28.07
2019-02-17T14:30:30.378Z,27.00
2019-02-17T14:32:59.193Z,28.70
2019-02-17T14:35:28.262Z,27.50
2019-02-17T14:37:57.277Z,28.37
2019-02-17T14:40:26.370Z,30.27
2019-02-17T14:42:55.551Z,29.03
2019-02-17T14:45:24.709Z,28.73
2019-02-17T14:47:53.873Z,30.83
2019-02-17T14:50:23.187Z,27.63
2019-02-17T14:52:52.209Z,27.73
2019-02-17T14:55:21.311Z,26.70
2019-02-17T14:57:50.007Z,26.80
2019-02-17T15:00:18.651Z,25.83
2019-02-17T15:02:47.215Z,25.20
2019-02-17T15:05:15.838Z,30.33
2019-02-17T15:07:44.372Z,28.60
2019-02-17T15:10:13.278Z,28.80
2019-02-17T15:12:41.916Z,44.73
2019-02-17T15:15:10.519Z,35.23
2019-02-17T15:17:39.121Z,27.90
2019-02-17T15:20:09.176Z,26.93
2019-02-17T15:22:37.769Z,29.10
2019-02-17T15:25:07.485Z,31.30
2019-02-17T15:27:36.697Z,27.97
2019-02-17T15:30:07.700Z,28.73
2019-02-17T15:32:36.226Z,27.23
2019-02-17T15:35:04.933Z,27.87
2019-02-17T15:37:33.516Z,29.53
2019-02-17T15:40:02.113Z,27.87
2019-02-17T15:42:30.641Z,31.87
2019-02-17T15:45:01.121Z,30.57
2019-02-17T15:47:29.404Z,35.27
2019-02-17T15:49:58.045Z,37.90
2019-02-17T15:52:26.949Z,32.90
2019-02-17T15:54:56.485Z,31.60
2019-02-17T15:57:25.025Z,31.43
2019-02-17T15:59:53.571Z,29.13
2019-02-17T16:02:22.092Z,28.97
2019-02-17T16:04:50.837Z,27.53
2019-02-17T16:07:19.529Z,31.43
2019-02-17T16:09:48.098Z,28.07
2019-02-17T16:12:16.784Z,30.77
2019-02-17T16:14:45.313Z,31.07
2019-02-17T16:17:13.870Z,26.30
2019-02-17T16:19:42.524Z,34.97
2019-02-17T16:22:11.097Z,28.03
2019-02-17T16:24:39.623Z,28.57
2019-02-17T16:27:08.181Z,27.90
2019-02-17T16:29:36.695Z,28.03
2019-02-17T16:32:08.217Z,29.23
2019-02-17T16:34:38.738Z,26.23
2019-02-17T16:37:07.059Z,27.97
2019-02-17T16:39:35.681Z,28.43
2019-02-17T16:42:04.324Z,22.30
2019-02-17T16:44:32.912Z,19.90
2019-02-17T16:47:01.499Z,23.93
2019-02-17T16:49:30.022Z,23.33
2019-02-17T16:51:58.570Z,24.03
2019-02-17T16:54:27.114Z,23.53
2019-02-17T16:56:55.761Z,22.97
2019-02-17T16:59:24.403Z,18.97
2019-02-17T17:01:53.005Z,20.90
2019-02-17T17:04:22.129Z,25.37
2019-02-17T17:06:51.598Z,19.60
2019-02-17T17:09:20.652Z,20.17
2019-02-17T17:11:49.686Z,19.63
2019-02-17T17:14:19.867Z,23.00
2019-02-17T17:16:48.971Z,19.40
2019-02-17T17:19:18.066Z,19.97
2019-02-17T17:21:47.222Z,17.83
2019-02-17T17:24:16.333Z,21.13
2019-02-17T17:26:45.534Z,20.13
2019-02-17T17:29:14.762Z,18.07
2019-02-17T17:31:43.820Z,19.00
2019-02-17T17:34:12.866Z,18.37
2019-02-17T17:36:42.093Z,17.30
2019-02-17T17:39:11.285Z,17.97
2019-02-17T17:41:40.610Z,20.10
2019-02-17T17:44:09.729Z,21.03
2019-02-17T17:46:38.761Z,19.97
2019-02-17T17:49:07.794Z,17.97
2019-02-17T17:51:36.840Z,20.13
2019-02-17T17:54:05.963Z,19.13
2019-02-17T17:56:34.988Z,17.10
2019-02-17T17:59:04.147Z,20.77
2019-02-17T18:01:33.105Z,17.77
2019-02-17T18:04:02.194Z,19.83
2019-02-17T18:06:31.248Z,20.43
2019-02-17T18:09:00.298Z,18.07
2019-02-17T18:11:29.598Z,21.07
2019-02-17T18:14:00.561Z,21.00
2019-02-17T18:16:29.585Z,18.43
2019-02-17T18:18:58.675Z,19.40
2019-02-17T18:21:27.725Z,22.20
2019-02-17T18:23:56.786Z,22.40
2019-02-17T18:26:25.883Z,19.00
2019-02-17T18:28:54.974Z,21.07
2019-02-17T18:31:24.099Z,20.93
2019-02-17T18:33:55.013Z,19.37
2019-02-17T18:36:24.120Z,20.60
2019-02-17T18:38:53.228Z,21.73
2019-02-17T18:41:22.249Z,23.60
2019-02-17T18:43:51.236Z,20.93
2019-02-17T18:46:20.237Z,21.77
2019-02-17T18:48:49.918Z,24.27
2019-02-17T18:51:18.894Z,22.63
2019-02-17T18:53:48.038Z,21.77
2019-02-17T18:56:17.203Z,22.33
2019-02-17T18:58:46.341Z,20.07
2019-02-17T19:01:15.320Z,23.93
2019-02-17T19:03:44.326Z,22.23
2019-02-17T19:06:14.445Z,24.33
2019-02-17T19:08:44.831Z,22.37
2019-02-17T19:11:13.804Z,26.93
2019-02-17T19:13:42.812Z,23.50
2019-02-17T19:16:13.250Z,21.63
2019-02-17T19:18:42.384Z,23.17
2019-02-17T19:21:11.506Z,25.03
2019-02-17T19:23:40.596Z,24.93
2019-02-17T19:26:09.577Z,24.47
2019-02-17T19:28:38.681Z,25.00
2019-02-17T19:31:09.090Z,24.23
2019-02-17T19:33:38.142Z,26.73
2019-02-17T19:36:07.268Z,23.97
2019-02-17T19:38:36.505Z,27.93
2019-02-17T19:41:05.708Z,27.40
2019-02-17T19:43:34.750Z,26.90
2019-02-17T19:46:03.988Z,23.67
2019-02-17T19:48:33.076Z,27.63
2019-02-17T19:51:02.236Z,25.20
2019-02-17T19:53:31.274Z,28.37
2019-02-17T19:56:00.334Z,26.03
2019-02-17T19:58:29.330Z,25.97
2019-02-17T20:00:58.393Z,25.20
2019-02-17T20:03:46.495Z,22.90
2019-02-17T20:06:17.737Z,25.13
2019-02-17T20:08:49.383Z,23.33
2019-02-17T20:11:18.576Z,20.67
2019-02-17T20:13:47.732Z,24.63
2019-02-17T20:16:16.879Z,22.43
2019-02-17T20:18:45.910Z,20.23
2019-02-17T20:21:14.982Z,23.60
2019-02-17T20:23:44.214Z,22.80
2019-02-17T20:26:13.285Z,23.90
2019-02-17T20:28:43.689Z,24.33
2019-02-17T20:31:12.869Z,23.63
2019-02-17T20:33:59.553Z,25.20
2019-02-17T20:36:32.481Z,25.47
2019-02-17T20:39:01.596Z,26.73
2019-02-17T20:41:30.609Z,27.40
2019-02-17T20:43:59.934Z,30.27
2019-02-17T20:46:29.038Z,33.60
2019-02-17T20:48:58.044Z,25.80
2019-02-17T20:51:27.393Z,29.53
2019-02-17T20:53:56.562Z,28.17
2019-02-17T20:56:25.586Z,26.23
2019-02-17T20:58:54.666Z,27.40
2019-02-17T21:01:23.681Z,23.40
2019-02-17T21:03:52.714Z,23.37
2019-02-17T21:06:21.810Z,26.27
2019-02-17T21:08:51.074Z,24.33
2019-02-17T21:11:20.123Z,24.50
2019-02-17T21:13:49.349Z,24.83
2019-02-17T21:16:18.505Z,23.77
2019-02-17T21:18:47.686Z,23.27
2019-02-17T21:21:16.707Z,24.53
2019-02-17T21:23:45.733Z,25.80
2019-02-17T21:26:14.724Z,22.50
2019-02-17T21:28:43.885Z,22.57
2019-02-17T21:31:12.869Z,23.57
2019-02-17T21:33:42.522Z,23.70
2019-02-17T21:36:11.512Z,23.70
2019-02-17T21:38:40.605Z,25.40
2019-02-17T21:41:09.766Z,26.40
2019-02-17T21:43:38.890Z,25.53
2019-02-17T21:46:07.959Z,26.83
2019-02-17T21:48:37.109Z,24.87
2019-02-17T21:51:06.247Z,23.37
2019-02-17T21:53:35.371Z,22.70
2019-02-17T21:56:04.643Z,24.40
2019-02-17T21:58:33.830Z,25.40
2019-02-17T22:01:03.346Z,27.47
2019-02-17T22:03:32.478Z,27.97
2019-02-17T22:06:01.657Z,29.43
2019-02-17T22:08:30.729Z,25.50
2019-02-17T22:10:59.776Z,22.67
2019-02-17T22:13:28.821Z,24.53
2019-02-17T22:15:57.907Z,25.60
2019-02-17T22:18:26.947Z,25.63
2019-02-17T22:20:56.025Z,23.13
2019-02-17T22:23:25.011Z,25.03
2019-02-17T22:25:54.126Z,26.77
2019-02-17T22:28:23.247Z,23.90
2019-02-17T22:30:52.313Z,27.97
2019-02-17T22:33:21.466Z,31.97
2019-02-17T22:35:50.468Z,63.60
2019-02-17T22:38:19.510Z,52.00
2019-02-17T22:40:48.615Z,67.57
2019-02-17T22:43:17.597Z,128.60
2019-02-17T22:45:46.686Z,51.57
2019-02-17T22:48:15.724Z,34.03
2019-02-17T22:50:44.744Z,34.47
2019-02-17T22:53:13.728Z,31.17
2019-02-17T22:55:42.768Z,26.50
2019-02-17T22:58:11.929Z,29.37
2019-02-17T23:01:01.047Z,26.50
2019-02-17T23:03:31.218Z,26.43
2019-02-17T23:06:00.397Z,28.17
2019-02-17T23:08:29.571Z,23.77
2019-02-17T23:10:58.726Z,23.40
2019-02-17T23:13:27.868Z,24.80
2019-02-17T23:15:56.852Z,26.00
2019-02-17T23:18:25.981Z,24.10
2019-02-17T23:20:54.977Z,25.70
2019-02-17T23:23:24.051Z,28.97
2019-02-17T23:25:53.044Z,28.27
2019-02-17T23:28:22.122Z,24.80
2019-02-17T23:30:51.177Z,24.13
2019-02-17T23:33:20.245Z,24.73
2019-02-17T23:35:49.442Z,29.10
2019-02-17T23:38:18.530Z,27.40
2019-02-17T23:40:47.640Z,25.67
2019-02-17T23:43:16.738Z,24.63
2019-02-17T23:45:45.890Z,27.87
2019-02-17T23:48:14.934Z,22.37
2019-02-17T23:50:44.261Z,24.17
2019-02-17T23:53:13.421Z,25.37
2019-02-17T23:55:42.538Z,22.77
2019-02-17T23:58:11.722Z,26.60
